Time;durP1;ratioP1;P1;durP2;ratioP2;P2;SDS_P1;SDS_P2;PMS_P1;PMS_P2;Temp;Humidity;BMP_temperature;BMP_pressure;BME280_temperature;BME280_humidity;BME280_pressure;Samples;Min_cycle;Max_cycle;Signal;HPM_P1;HPM_P2
2022/06/20 06:38:22;;;;;;;127.68;16.70;;;;;;;21.20;64.54;96050.31;2084920;28;20553;-60
2022/06/20 06:39:32;;;;;;;135.43;22.55;;;;;;;21.56;65.90;96054.84;2085298;28;20192;-60
2022/06/20 06:40:49;;;;;;;132.80;18.40;;;;;;;21.80;64.70;96069.31;2080464;28;20196;-61
2022/06/20 06:41:56;;;;;;;159.70;84.50;;;;;;;21.98;62.86;96064.00;2079763;28;20204;-62
2022/06/20 06:43:12;;;;;;;200.02;153.13;;;;;;;21.73;61.80;96031.91;2064945;28;20222;-62
2022/06/20 06:44:19;;;;;;;186.07;132.02;;;;;;;21.88;63.30;96076.53;2075541;28;20242;-62
2022/06/20 06:45:24;;;;;;;177.57;115.70;;;;;;;21.55;64.60;96066.44;2076673;28;20225;-62
2022/06/20 06:46:38;;;;;;;196.65;134.18;;;;;;;20.82;65.83;96069.91;2076772;28;20205;-62
2022/06/20 06:47:45;;;;;;;166.95;78.55;;;;;;;21.39;64.45;96075.03;2069308;28;20588;-62
2022/06/20 06:49:18;;;;;;;139.93;49.47;;;;;;;21.43;64.87;96073.75;2073405;28;21086;-62
2022/06/20 06:50:31;;;;;;;168.40;76.57;;;;;;;21.50;64.81;96081.97;2077241;28;20562;-62
2022/06/20 06:51:40;;;;;;;132.40;36.00;;;;;;;21.77;62.17;96067.81;2070835;28;20205;-62
2022/06/20 06:52:50;;;;;;;136.63;30.83;;;;;;;21.87;62.14;96085.50;2074067;28;20225;-62
2022/06/20 06:54:13;;;;;;;136.98;32.88;;;;;;;21.85;63.11;96051.94;2076028;28;20645;-62
2022/06/20 06:55:24;;;;;;;129.63;28.98;;;;;;;22.23;61.71;96072.97;2074965;28;20541;-62
2022/06/20 06:56:32;;;;;;;130.93;34.63;;;;;;;22.12;61.84;96068.75;2073954;28;20220;-62
2022/06/20 06:57:47;;;;;;;129.48;33.05;;;;;;;22.18;61.98;96072.63;2070516;28;20226;-62
2022/06/20 06:59:00;;;;;;;138.02;40.95;;;;;;;22.48;60.86;96081.16;2072369;28;20556;-62
2022/06/20 07:34:08;;;;;;;190.60;135.85;;;;;;;24.81;51.38;96079.66;2085656;28;20576;-63
2022/06/20 07:35:24;;;;;;;185.93;132.23;;;;;;;25.00;50.34;96086.44;2085241;28;20192;-63
2022/06/20 07:36:31;;;;;;;162.50;95.45;;;;;;;24.94;49.94;96090.63;2083509;28;20204;-63
2022/06/20 07:37:44;;;;;;;159.55;87.57;;;;;;;24.99;49.26;96090.13;2067947;28;20226;-63
2022/06/20 07:38:50;;;;;;;154.52;87.35;;;;;;;25.12;49.51;96089.56;2066859;28;20194;-63
2022/06/20 07:40:00;;;;;;;159.25;84.50;;;;;;;25.08;49.61;96077.56;2073581;28;20197;-63
2022/06/20 07:41:09;;;;;;;139.77;54.95;;;;;;;25.56;49.84;96081.03;2072841;28;20204;-62
2022/06/20 07:42:33;;;;;;;148.20;68.43;;;;;;;25.69;48.91;96083.09;2073314;28;20202;-63
2022/06/20 07:43:45;;;;;;;142.13;59.30;;;;;;;25.55;48.77;96081.19;2072694;28;20217;-63
2022/06/20 07:44:57;;;;;;;139.18;63.40;;;;;;;25.48;49.67;96075.72;2074214;28;20204;-62
2022/06/20 07:46:06;;;;;;;151.88;70.80;;;;;;;25.63;49.63;96091.00;2068389;28;20206;-62
2022/06/20 07:47:20;;;;;;;164.20;88.68;;;;;;;25.52;49.27;96105.59;2068580;28;20415;-62
2022/06/20 07:48:33;;;;;;;149.95;77.00;;;;;;;25.41;50.30;96096.16;2072260;28;20750;-63
2022/06/20 07:49:45;;;;;;;149.13;74.32;;;;;;;25.56;49.84;96102.41;2076248;28;20197;-62
2022/06/20 07:50:56;;;;;;;156.10;84.72;;;;;;;25.55;49.88;96108.75;2072433;28;20194;-62
2022/06/20 07:52:03;;;;;;;156.02;90.90;;;;;;;25.53;50.13;96112.59;2068143;28;20205;-63
2022/06/20 07:53:09;;;;;;;153.82;88.35;;;;;;;25.30;50.17;96112.53;2072125;28;20633;-63
2022/06/20 07:54:20;;;;;;;162.93;104.82;;;;;;;25.33;50.18;96110.34;2071633;28;20201;-63
2022/06/20 07:55:26;;;;;;;195.07;127.85;;;;;;;25.38;50.38;96105.34;2072545;28;20199;-63
2022/06/20 07:56:37;;;;;;;163.77;106.25;;;;;;;25.41;50.22;96128.22;2073447;28;20197;-63
2022/06/20 07:57:47;;;;;;;188.73;136.88;;;;;;;25.02;50.37;96116.47;2076104;28;20213;-63
2022/06/20 07:58:58;;;;;;;179.60;117.07;;;;;;;24.83;50.94;96122.19;2073275;28;20785;-63
2022/06/20 08:27:42;;;;;;;141.27;43.13;;;;;;;25.94;48.75;96127.56;2083364;28;20583;-63
2022/06/20 08:28:53;;;;;;;141.82;60.63;;;;;;;25.77;48.80;96130.34;2076255;28;20200;-63
2022/06/20 08:30:09;;;;;;;140.38;49.20;;;;;;;25.92;48.30;96127.75;2077329;28;20193;-63
2022/06/20 08:31:28;;;;;;;146.02;54.80;;;;;;;26.03;48.85;96119.31;2076604;28;20205;-64
2022/06/20 08:32:33;;;;;;;144.70;65.10;;;;;;;26.30;48.75;96135.03;2073080;28;20236;-63
2022/06/20 08:33:43;;;;;;;157.27;84.82;;;;;;;26.51;47.88;96129.84;2078092;28;20679;-64
2022/06/20 08:34:55;;;;;;;187.98;133.85;;;;;;;26.47;47.72;96120.47;2077973;28;20197;-64
2022/06/20 08:36:26;;;;;;;195.60;135.60;;;;;;;26.59;47.14;96128.06;2076456;28;20208;-65
2022/06/20 08:37:40;;;;;;;218.80;183.68;;;;;;;26.72;47.60;96128.28;2075596;28;20228;-65
2022/06/20 08:39:04;;;;;;;284.75;256.45;;;;;;;26.49;47.52;96123.81;2075874;28;20201;-65
2022/06/20 08:40:31;;;;;;;301.10;270.70;;;;;;;26.53;46.99;96119.75;2076811;28;20557;-64
2022/06/20 08:41:44;;;;;;;298.85;269.42;;;;;;;26.62;46.27;96122.38;2075753;28;20255;-64
2022/06/20 08:43:24;;;;;;;328.85;297.45;;;;;;;26.15;46.96;96108.22;2074619;28;20217;-64
2022/06/20 08:44:31;;;;;;;226.27;197.45;;;;;;;26.10;47.43;96124.81;2073998;28;20809;-64
2022/06/20 08:46:14;;;;;;;176.50;109.25;;;;;;;26.02;47.65;96125.66;2076039;28;20204;-64
2022/06/20 08:47:41;;;;;;;307.38;277.52;;;;;;;25.84;48.48;96146.50;2077497;28;20727;-64
2022/06/20 08:48:52;;;;;;;339.95;306.83;;;;;;;26.15;48.53;96140.31;2077299;28;20197;-64
2022/06/20 08:50:12;;;;;;;351.20;318.02;;;;;;;26.16;48.21;96140.16;2078468;28;20208;-64
2022/06/20 09:13:39;;;;;;;219.80;176.07;;;;;;;28.46;43.15;96148.41;2099938;27;20558;-62
2022/06/20 09:15:11;;;;;;;135.90;49.95;;;;;;;28.58;42.06;96151.38;2092764;28;20222;-62
2022/06/20 09:16:12;;;;;;;126.65;36.70;;;;;;;27.89;41.94;96145.53;2094464;28;20670;-62
2022/06/20 09:17:37;;;;;;;124.78;27.23;;;;;;;28.23;42.61;96156.66;2088972;28;20203;-61
2022/06/20 09:19:04;;;;;;;124.30;33.60;;;;;;;28.29;42.21;96153.19;2067498;28;20861;-61
2022/06/20 09:20:43;;;;;;;131.98;36.78;;;;;;;28.64;41.76;96162.16;2074770;28;20201;-60
2022/06/20 09:22:03;;;;;;;124.95;26.90;;;;;;;29.02;41.52;96161.03;2075418;28;20193;-62
2022/06/20 09:23:33;;;;;;;127.13;16.60;;;;;;;28.97;41.25;96156.22;2075377;28;20220;-62
2022/06/20 09:24:41;;;;;;;119.07;13.82;;;;;;;28.98;41.29;96160.59;2075162;28;20201;-62
2022/06/20 09:26:13;;;;;;;110.47;12.07;;;;;;;29.46;40.91;96156.34;2075815;28;20208;-62
2022/06/20 09:27:36;;;;;;;111.00;10.75;;;;;;;29.47;40.00;96148.09;2057155;28;20202;-62
2022/06/20 09:29:19;;;;;;;121.63;10.18;;;;;;;29.86;39.39;96136.84;2076356;28;20211;-62
2022/06/20 09:30:31;;;;;;;122.00;25.05;;;;;;;29.94;38.99;96160.88;2076173;28;20653;-63
2022/06/20 09:31:52;;;;;;;109.53;14.48;;;;;;;29.29;40.42;96164.75;2074400;28;20200;-63
2022/06/20 09:33:38;;;;;;;111.05;16.70;;;;;;;29.16;39.89;96156.56;2075817;28;20271;-62
2022/06/20 09:34:55;;;;;;;127.70;22.65;;;;;;;28.72;40.90;96169.31;2076188;28;20436;-63
2022/06/20 09:36:21;;;;;;;141.75;52.47;;;;;;;28.28;41.58;96162.28;2076032;28;20951;-63
2022/06/20 09:37:50;;;;;;;113.38;15.25;;;;;;;28.49;41.46;96156.91;2075038;28;20228;-63
2022/06/20 09:39:05;;;;;;;118.57;20.40;;;;;;;28.52;41.46;96161.88;2075468;28;20197;-64
2022/06/20 09:40:06;;;;;;;112.47;14.23;;;;;;;28.75;41.40;96168.09;2076501;28;20204;-63
2022/06/20 09:41:20;;;;;;;118.82;20.88;;;;;;;28.69;41.10;96164.31;2076138;28;20224;-64
2022/06/20 09:42:42;;;;;;;126.85;26.42;;;;;;;28.25;41.11;96168.88;2075005;28;20332;-63
2022/06/20 09:44:15;;;;;;;128.18;32.83;;;;;;;27.94;42.53;96169.94;2074363;28;20201;-63
2022/06/20 09:45:57;;;;;;;117.15;18.45;;;;;;;28.61;42.18;96170.63;2074700;28;20791;-62
2022/06/20 09:47:10;;;;;;;113.53;13.57;;;;;;;29.05;40.90;96171.41;2061873;28;20215;-63
2022/06/20 09:48:30;;;;;;;121.68;14.88;;;;;;;28.89;41.26;96177.06;2075634;28;20224;-63
2022/06/20 09:50:00;;;;;;;112.88;20.50;;;;;;;28.72;40.94;96177.38;2073732;28;20197;-63
2022/06/20 09:51:11;;;;;;;114.18;17.00;;;;;;;28.81;40.70;96170.81;2075661;28;20820;-62
2022/06/20 09:52:41;;;;;;;108.03;15.98;;;;;;;28.62;41.70;96174.13;2076068;28;20204;-63
2022/06/20 09:53:43;;;;;;;113.57;15.70;;;;;;;28.45;41.88;96177.06;2075628;28;20233;-63
2022/06/20 09:54:53;;;;;;;112.35;16.08;;;;;;;28.38;42.29;96173.53;2077017;28;20208;-63
2022/06/20 09:56:05;;;;;;;114.03;16.25;;;;;;;27.81;43.12;96159.91;2076299;28;20196;-63
2022/06/20 09:57:13;;;;;;;120.50;14.98;;;;;;;27.75;43.68;96176.72;2077080;28;20644;-63
2022/06/20 09:58:36;;;;;;;117.13;12.32;;;;;;;27.95;43.18;96166.25;2077621;28;20205;-63
2022/06/20 09:59:51;;;;;;;111.20;13.98;;;;;;;27.94;42.79;96159.22;2076258;28;20212;-63
2022/06/20 10:01:11;;;;;;;112.75;10.68;;;;;;;28.06;42.94;96170.31;2076629;28;20205;-63
2022/06/20 10:02:37;;;;;;;102.38;9.52;;;;;;;28.05;42.95;96176.69;2077354;28;20200;-63
2022/06/20 10:04:07;;;;;;;119.43;11.95;;;;;;;27.91;42.96;96181.06;2077708;28;20683;-62
2022/06/20 10:05:34;;;;;;;120.22;15.93;;;;;;;27.95;43.25;96174.28;2075545;28;20200;-63
2022/06/20 10:07:07;;;;;;;116.82;14.30;;;;;;;27.76;43.36;96177.59;2073670;28;20604;-62
2022/06/20 10:08:25;;;;;;;107.90;9.73;;;;;;;27.28;44.05;96172.59;2074567;28;20280;-64
2022/06/20 10:09:45;;;;;;;112.30;10.55;;;;;;;27.20;44.60;96179.72;2078133;28;20217;-63
2022/06/20 10:10:55;;;;;;;113.00;19.38;;;;;;;27.49;44.05;96170.03;2074726;28;20340;-64
2022/06/20 10:12:06;;;;;;;111.70;18.27;;;;;;;27.68;43.83;96165.09;2075438;28;20208;-62
2022/06/20 10:13:19;;;;;;;110.55;14.40;;;;;;;27.88;43.54;96172.56;2074094;28;20303;-63
2022/06/20 10:14:34;;;;;;;112.72;10.20;;;;;;;27.61;43.39;96169.56;2075690;28;20240;-64
2022/06/20 10:15:49;;;;;;;126.40;11.65;;;;;;;27.68;43.77;96176.66;2075194;28;20240;-63
2022/06/20 10:17:09;;;;;;;117.15;13.45;;;;;;;28.13;42.94;96184.63;2075790;28;20204;-64
2022/06/20 10:18:21;;;;;;;114.93;10.93;;;;;;;28.22;42.68;96185.34;2073651;28;20241;-63
2022/06/20 10:20:19;;;;;;;110.68;11.43;;;;;;;28.66;41.68;96183.47;2075013;28;20198;-64
2022/06/20 10:21:51;;;;;;;113.18;11.68;;;;;;;28.66;40.77;96178.94;2068591;28;20202;-65
2022/06/20 10:23:29;;;;;;;122.25;11.35;;;;;;;28.67;41.65;96182.47;2068259;28;20321;-65
2022/06/20 10:24:51;;;;;;;118.97;13.45;;;;;;;28.19;41.39;96181.19;2063520;28;20210;-64
2022/06/20 10:26:21;;;;;;;109.22;13.02;;;;;;;27.94;41.47;96188.72;2063305;28;20216;-64
2022/06/20 10:27:28;;;;;;;107.95;10.95;;;;;;;27.86;41.79;96189.66;2062972;28;20229;-64
2022/06/20 10:28:36;;;;;;;112.85;13.13;;;;;;;27.83;42.04;96198.09;2063242;28;20433;-65
2022/06/20 10:29:50;;;;;;;110.47;13.50;;;;;;;27.97;41.36;96188.34;2055349;28;20203;-64
2022/06/20 10:31:06;;;;;;;129.63;35.53;;;;;;;27.93;41.69;96189.72;2055396;28;20237;-64
2022/06/20 10:32:18;;;;;;;107.63;12.27;;;;;;;27.88;42.54;96194.00;2062843;28;20194;-63
2022/06/20 10:33:32;;;;;;;109.05;11.07;;;;;;;28.15;41.71;96189.78;2063132;28;20226;-62
2022/06/20 10:34:49;;;;;;;107.90;12.95;;;;;;;27.76;41.49;96193.69;2063200;28;20263;-62
2022/06/20 10:36:10;;;;;;;115.15;13.15;;;;;;;27.46;42.38;96196.38;2063225;28;20763;-62
2022/06/20 10:37:26;;;;;;;107.85;10.63;;;;;;;27.33;41.89;96168.34;2062310;28;20721;-62
2022/06/20 10:38:41;;;;;;;109.38;11.35;;;;;;;27.56;42.00;96191.56;2062995;28;20202;-62
2022/06/20 10:39:45;;;;;;;108.65;11.15;;;;;;;27.54;42.20;96190.91;2063179;28;20202;-63
2022/06/20 10:41:01;;;;;;;105.63;10.52;;;;;;;27.70;42.13;96195.25;2063238;28;20270;-63
2022/06/20 10:42:23;;;;;;;108.53;10.27;;;;;;;27.38;43.01;96191.91;2062675;28;20194;-63
2022/06/20 10:43:45;;;;;;;112.32;11.32;;;;;;;27.10;42.52;96179.16;2063214;28;20622;-62
2022/06/20 10:45:02;;;;;;;110.25;10.02;;;;;;;26.95;42.98;96175.63;2062644;28;20337;-63
2022/06/20 10:46:11;;;;;;;105.07;10.10;;;;;;;27.11;42.73;96186.19;2063093;28;20297;-63
2022/06/20 10:47:32;;;;;;;110.55;16.13;;;;;;;27.07;43.53;96187.56;2062750;28;20199;-63
2022/06/20 10:48:53;;;;;;;109.88;15.43;;;;;;;27.14;43.02;96183.13;2063105;28;20539;-62
2022/06/20 10:50:09;;;;;;;115.65;23.35;;;;;;;27.39;43.33;96188.25;2061691;28;20198;-63
2022/06/20 10:51:20;;;;;;;122.20;23.27;;;;;;;27.17;43.34;96188.13;2063059;28;20202;-62
2022/06/20 10:52:41;;;;;;;118.93;28.05;;;;;;;26.98;43.94;96189.50;2063713;28;20229;-62
2022/06/20 10:54:02;;;;;;;120.57;27.67;;;;;;;27.33;43.35;96186.28;2067966;28;20206;-62
2022/06/20 10:55:19;;;;;;;113.50;22.88;;;;;;;26.97;43.78;96185.16;2070055;28;20542;-62
2022/06/20 10:56:31;;;;;;;117.22;29.52;;;;;;;27.21;44.22;96185.88;2069391;28;20231;-62
2022/06/20 10:57:53;;;;;;;116.32;27.52;;;;;;;27.29;43.78;96196.53;2067658;28;20222;-62
2022/06/20 10:59:04;;;;;;;116.80;26.63;;;;;;;27.39;43.92;96190.94;2071352;28;20204;-62
2022/06/20 11:00:18;;;;;;;117.65;30.25;;;;;;;27.78;43.27;96202.34;2070927;28;20213;-62
2022/06/20 11:01:29;;;;;;;116.95;29.02;;;;;;;27.73;43.58;96204.75;2068130;28;20275;-62
2022/06/20 11:02:56;;;;;;;120.50;28.75;;;;;;;27.54;44.02;96202.47;2068308;28;20725;-63
2022/06/20 11:04:23;;;;;;;136.05;34.80;;;;;;;27.36;44.78;96215.38;2067645;28;20198;-62
2022/06/20 11:05:55;;;;;;;137.55;31.58;;;;;;;27.36;44.39;96216.22;2069044;28;20201;-62
2022/06/20 11:07:04;;;;;;;135.73;39.95;;;;;;;27.60;44.16;96218.84;2068607;28;20195;-62
2022/06/20 11:08:37;;;;;;;121.40;31.23;;;;;;;27.68;43.88;96216.03;2068037;28;20197;-62
2022/06/20 11:09:47;;;;;;;125.20;30.52;;;;;;;27.82;44.16;96219.72;2069524;28;20205;-62
2022/06/20 11:11:03;;;;;;;118.95;29.92;;;;;;;28.47;42.93;96234.09;2070305;28;20198;-62
2022/06/20 11:12:14;;;;;;;123.13;27.75;;;;;;;28.52;42.53;96230.84;2069876;28;20197;-62
2022/06/20 11:13:22;;;;;;;122.93;31.13;;;;;;;29.17;41.35;96236.19;2069955;28;20236;-62
2022/06/20 11:14:35;;;;;;;122.40;29.48;;;;;;;29.22;41.40;96236.41;2070634;28;20209;-61
2022/06/20 11:16:14;;;;;;;116.30;27.65;;;;;;;29.23;41.32;96239.91;2070398;28;20205;-62
2022/06/20 11:17:35;;;;;;;112.47;10.20;;;;;;;29.58;40.59;96234.59;2069588;28;20232;-63
2022/06/20 11:18:53;;;;;;;115.63;24.73;;;;;;;29.76;40.34;96234.91;2069004;28;20202;-62
2022/06/20 11:20:01;;;;;;;115.80;11.07;;;;;;;30.32;39.80;96251.06;2070368;28;20205;-62
2022/06/20 11:21:13;;;;;;;115.28;11.32;;;;;;;30.17;39.94;96252.06;2069668;28;20197;-61
2022/06/20 11:22:36;;;;;;;108.28;14.35;;;;;;;29.59;40.42;96261.28;2070672;28;20206;-62
2022/06/20 11:23:41;;;;;;;110.07;11.57;;;;;;;29.84;40.58;96246.50;2071122;28;20222;-61
2022/06/20 11:25:04;;;;;;;116.55;14.73;;;;;;;30.11;39.87;96245.63;2069858;28;20198;-62
2022/06/20 11:26:13;;;;;;;111.18;13.23;;;;;;;29.86;39.62;96255.22;2069377;28;20191;-62
2022/06/20 11:27:38;;;;;;;108.28;15.80;;;;;;;29.97;39.34;96254.69;2071148;28;20200;-61
2022/06/20 11:28:52;;;;;;;116.57;16.20;;;;;;;29.73;39.88;96262.19;2068088;28;20205;-62
2022/06/20 11:30:07;;;;;;;126.35;20.10;;;;;;;28.59;42.31;96263.13;2069345;28;20198;-62
2022/06/20 11:31:19;;;;;;;118.07;19.98;;;;;;;28.24;42.97;96261.13;2068971;28;20703;-61
2022/06/20 11:32:38;;;;;;;115.50;21.55;;;;;;;28.34;42.42;96266.16;2069620;28;20245;-62
2022/06/20 11:34:06;;;;;;;118.85;16.40;;;;;;;27.33;42.87;96181.75;2068492;28;20202;-59
2022/06/20 11:35:42;;;;;;;112.50;17.20;;;;;;;27.24;44.62;96259.75;2069399;28;20197;-59
2022/06/20 11:37:12;;;;;;;109.45;10.43;;;;;;;27.18;44.73;96267.47;2069723;28;20197;-60
2022/06/20 11:38:51;;;;;;;118.07;16.42;;;;;;;27.11;45.43;96258.53;2069561;28;20279;-60
2022/06/20 11:40:17;;;;;;;119.45;27.02;;;;;;;26.59;45.47;96268.13;2070845;28;20205;-60
2022/06/20 11:41:48;;;;;;;116.72;31.13;;;;;;;26.47;45.85;96265.00;2069942;28;20599;-60
2022/06/20 11:43:08;;;;;;;123.40;24.83;;;;;;;26.55;46.25;96272.16;2061940;28;20238;-59
2022/06/20 11:44:15;;;;;;;117.10;29.50;;;;;;;26.15;46.94;96274.91;2061443;28;20245;-59
2022/06/20 11:45:43;;;;;;;130.60;37.90;;;;;;;26.06;46.58;96279.47;2060776;28;20253;-59
2022/06/20 11:47:03;;;;;;;195.55;137.45;;;;;;;25.47;47.84;96279.00;2059471;28;20672;-59
2022/06/20 11:48:17;;;;;;;197.15;163.88;;;;;;;25.46;48.12;96285.34;2060256;28;20245;-59
2022/06/20 11:49:25;;;;;;;282.63;253.07;;;;;;;25.48;47.55;96286.00;2060632;28;20657;-60
2022/06/20 11:50:35;;;;;;;246.45;219.75;;;;;;;25.31;47.87;96272.66;2061303;28;20201;-59
2022/06/20 11:51:39;;;;;;;309.52;278.20;;;;;;;25.17;48.13;96276.84;2061630;28;20210;-59
2022/06/20 11:52:53;;;;;;;344.13;311.05;;;;;;;25.30;47.68;96283.50;2061101;28;20234;-60
2022/06/20 11:54:15;;;;;;;363.67;327.70;;;;;;;24.97;47.97;96289.72;2060333;28;20436;-59
2022/06/20 12:17:02;;;;;;;158.85;75.03;;;;;;;25.92;45.26;96294.38;2088479;28;20548;-63
2022/06/20 12:18:33;;;;;;;261.42;233.55;;;;;;;25.97;45.09;96287.69;2073113;28;20221;-64
2022/06/20 12:24:21;;;;;;;126.63;41.70;;;;;;;27.49;41.74;96290.66;2076059;28;20208;-64
2022/06/20 12:25:32;;;;;;;123.45;40.13;;;;;;;27.12;42.22;96299.53;2075009;28;20201;-64
2022/06/20 12:26:39;;;;;;;127.53;38.97;;;;;;;27.00;42.46;96299.13;2073254;28;20205;-64
2022/06/20 12:27:42;;;;;;;122.20;40.05;;;;;;;27.15;41.82;96285.78;2074269;28;20232;-64
2022/06/20 12:28:47;;;;;;;120.57;29.35;;;;;;;27.04;41.74;96295.91;2070301;28;20646;-64
2022/06/20 12:29:49;;;;;;;115.60;31.10;;;;;;;27.60;40.98;96301.94;2069959;28;20645;-64
2022/06/20 12:31:01;;;;;;;118.32;19.05;;;;;;;27.97;40.16;96298.34;2070812;28;20201;-64
2022/06/20 12:32:10;;;;;;;122.95;36.78;;;;;;;28.45;40.28;96311.31;2075485;28;20201;-63
2022/06/20 12:33:13;;;;;;;128.40;44.30;;;;;;;28.29;42.03;96324.97;2070381;28;20664;-63
2022/06/20 12:34:56;;;;;;;121.63;30.75;;;;;;;28.80;41.31;96319.56;2071572;28;20750;-64
2022/06/20 12:36:04;;;;;;;117.57;27.60;;;;;;;28.97;40.71;96308.56;2071894;28;20678;-63
2022/06/20 12:37:27;;;;;;;117.30;27.42;;;;;;;29.53;39.84;96323.94;2071869;28;20198;-64
2022/06/20 12:38:40;;;;;;;118.30;21.35;;;;;;;28.79;41.28;96309.84;2073563;28;20205;-64
2022/06/20 12:40:00;;;;;;;110.68;14.15;;;;;;;29.06;40.77;96317.34;2072597;28;20589;-64
2022/06/20 12:41:08;;;;;;;111.22;13.93;;;;;;;29.86;40.16;96322.50;2072038;28;20194;-64
2022/06/20 12:42:14;;;;;;;116.82;10.52;;;;;;;30.05;39.00;96331.72;2067720;28;20197;-64
2022/06/20 12:43:20;;;;;;;117.80;10.68;;;;;;;30.09;39.44;96333.84;2072186;28;20197;-64
2022/06/20 12:44:25;;;;;;;109.93;15.18;;;;;;;30.80;37.88;96333.69;2074514;28;20208;-64
2022/06/20 12:46:09;;;;;;;114.10;13.85;;;;;;;30.49;38.40;96329.66;2073668;28;20861;-64
2022/06/20 12:47:35;;;;;;;121.18;16.67;;;;;;;30.32;38.94;96331.84;2071286;28;20205;-64
2022/06/20 12:48:37;;;;;;;111.10;13.30;;;;;;;30.28;39.62;96331.41;2064097;28;20289;-64
2022/06/20 12:50:24;;;;;;;118.47;22.50;;;;;;;29.21;40.99;96331.53;2067079;28;20295;-64
2022/06/20 12:51:46;;;;;;;109.40;16.25;;;;;;;29.06;41.25;96325.41;2068062;28;20664;-61
2022/06/20 12:52:56;;;;;;;110.22;18.02;;;;;;;28.06;42.80;96325.09;2069075;28;20583;-61
2022/06/20 12:54:04;;;;;;;114.80;23.30;;;;;;;28.01;43.27;96325.59;2073574;28;20204;-61
2022/06/20 12:55:43;;;;;;;122.20;23.17;;;;;;;28.15;42.98;96332.00;2072392;28;20196;-61
2022/06/20 12:56:54;;;;;;;115.60;17.63;;;;;;;28.08;43.21;96348.03;2072864;28;20707;-61
2022/06/20 12:57:58;;;;;;;111.25;16.15;;;;;;;28.31;43.15;96341.72;2072024;28;20214;-61
2022/06/20 12:59:35;;;;;;;111.65;16.55;;;;;;;28.37;43.14;96345.50;2076673;28;20692;-61
2022/06/20 13:00:52;;;;;;;108.00;9.25;;;;;;;28.52;42.70;96354.38;2074620;28;20212;-61
2022/06/20 13:02:43;;;;;;;109.47;10.65;;;;;;;28.13;43.52;96340.25;2075455;28;20224;-64
2022/06/20 13:04:20;;;;;;;107.53;19.15;;;;;;;27.78;44.77;96334.63;2075347;28;20202;-64
2022/06/20 13:05:24;;;;;;;112.43;25.23;;;;;;;28.16;43.80;96339.91;2075978;28;20201;-63
2022/06/20 13:07:00;;;;;;;117.40;32.15;;;;;;;28.48;43.31;96345.00;2076302;28;20202;-64
2022/06/20 13:08:17;;;;;;;115.85;26.55;;;;;;;28.92;42.53;96351.31;2069504;28;20217;-65
2022/06/20 13:09:32;;;;;;;118.35;29.67;;;;;;;29.07;42.67;96345.88;2071448;28;20208;-62
2022/06/20 13:10:40;;;;;;;116.70;29.15;;;;;;;28.98;42.40;96337.94;2074378;28;20204;-61
2022/06/20 13:12:07;;;;;;;114.68;16.02;;;;;;;29.29;41.81;96344.88;2075148;28;20201;-62
2022/06/20 13:13:35;;;;;;;111.30;17.50;;;;;;;29.07;41.84;96341.31;2072679;28;20221;-63
2022/06/20 13:15:21;;;;;;;116.32;11.15;;;;;;;28.50;43.25;96342.97;2071602;28;20204;-62
2022/06/20 13:16:44;;;;;;;119.20;23.75;;;;;;;28.24;44.16;96338.13;2067832;28;20232;-62
2022/06/20 13:17:57;;;;;;;113.60;19.83;;;;;;;27.27;45.83;96345.94;2070894;28;20217;-60
2022/06/20 13:19:11;;;;;;;113.97;27.77;;;;;;;27.18;46.48;96342.50;2072852;28;20212;-63
2022/06/20 13:20:24;;;;;;;112.50;26.02;;;;;;;27.36;45.82;96344.03;2070365;28;20201;-63
2022/06/20 13:21:38;;;;;;;115.65;28.85;;;;;;;27.30;46.17;96348.28;2073452;28;20198;-63
2022/06/20 13:23:26;;;;;;;118.95;26.02;;;;;;;25.99;48.99;96347.19;2071801;28;20283;-63
2022/06/20 13:25:21;;;;;;;397.88;361.50;;;;;;;26.66;48.58;96346.69;2067030;28;20206;-62
2022/06/20 13:26:43;;;;;;;412.73;374.92;;;;;;;26.01;49.46;96351.34;2064079;28;20259;-61
2022/06/20 13:27:52;;;;;;;475.33;432.27;;;;;;;26.29;49.25;96358.94;2056916;28;20230;-62
2022/06/20 13:29:17;;;;;;;415.80;377.95;;;;;;;25.77;50.39;96370.16;2066581;28;20202;-62
2022/06/20 13:30:40;;;;;;;438.75;397.70;;;;;;;25.91;50.06;96372.09;2059559;28;20209;-62
2022/06/20 13:31:49;;;;;;;425.55;387.52;;;;;;;26.03;49.70;96369.88;2061269;28;20323;-62
2022/06/20 13:33:02;;;;;;;431.55;392.35;;;;;;;25.00;51.44;96358.81;2068116;28;20224;-62
2022/06/20 13:34:32;;;;;;;351.42;317.92;;;;;;;24.84;52.44;96374.84;2076442;28;20231;-62
2022/06/20 13:35:44;;;;;;;327.05;295.40;;;;;;;24.51;52.81;96364.88;2057402;28;20198;-62
2022/06/20 13:37:23;;;;;;;349.65;316.13;;;;;;;24.94;51.79;96371.00;2068857;28;20253;-62
2022/06/20 13:38:47;;;;;;;329.95;296.90;;;;;;;25.09;51.48;96373.03;2071077;28;20214;-63
2022/06/20 13:40:03;;;;;;;217.07;191.23;;;;;;;24.19;53.88;96365.59;2065784;28;20210;-63
2022/06/20 13:41:30;;;;;;;235.75;211.93;;;;;;;24.05;53.64;96367.03;2068003;28;20209;-63
2022/06/20 13:42:37;;;;;;;173.88;131.18;;;;;;;24.48;52.64;96373.22;2069246;28;20281;-63
2022/06/20 13:44:04;;;;;;;188.05;159.13;;;;;;;24.19;52.72;96371.78;2081518;28;20201;-63
2022/06/20 13:45:32;;;;;;;173.80;120.75;;;;;;;24.19;53.09;96366.44;2069091;28;20198;-63
2022/06/20 13:46:50;;;;;;;161.10;100.35;;;;;;;23.50;55.11;96369.03;2065755;28;20206;-63
2022/06/20 13:48:06;;;;;;;118.65;28.02;;;;;;;24.01;53.76;96371.88;2072401;28;20226;-63
2022/06/20 13:49:27;;;;;;;127.97;38.53;;;;;;;24.19;52.98;96382.44;2081109;28;20192;-63
2022/06/20 13:50:33;;;;;;;129.75;36.10;;;;;;;23.52;54.19;96382.22;2068759;28;20925;-63
2022/06/20 13:51:47;;;;;;;125.65;19.02;;;;;;;23.13;55.77;96370.06;2070060;28;20205;-63
2022/06/20 13:53:08;;;;;;;113.57;13.90;;;;;;;23.34;55.53;96376.91;2065888;28;20217;-63
2022/06/20 13:54:40;;;;;;;111.32;11.95;;;;;;;23.63;54.36;96368.63;2068957;28;20207;-63
2022/06/20 13:55:51;;;;;;;111.13;13.80;;;;;;;23.07;55.58;96371.53;2070956;28;20204;-62
2022/06/20 13:57:37;;;;;;;143.75;31.30;;;;;;;23.48;55.06;96371.03;2065551;28;20199;-63
2022/06/20 13:59:13;;;;;;;124.78;24.83;;;;;;;23.35;54.77;96373.25;2058282;28;20806;-63
2022/06/20 14:00:25;;;;;;;110.78;10.85;;;;;;;23.51;54.55;96368.03;2048816;28;20718;-64
2022/06/20 14:02:04;;;;;;;113.47;14.50;;;;;;;23.14;55.84;96361.91;2057133;28;20199;-63
2022/06/20 14:03:28;;;;;;;117.45;20.33;;;;;;;23.42;55.00;96366.31;2055566;28;20214;-64
2022/06/20 14:04:32;;;;;;;117.25;12.68;;;;;;;23.23;55.35;96370.84;2058120;28;20199;-65
2022/06/20 14:05:36;;;;;;;115.57;13.32;;;;;;;23.37;55.00;96368.63;2057486;28;20298;-64
2022/06/20 14:06:52;;;;;;;110.40;10.48;;;;;;;23.57;54.01;96367.41;2059297;28;20202;-64
2022/06/20 14:08:04;;;;;;;107.35;11.90;;;;;;;22.94;55.49;96357.75;2059196;28;20233;-64
2022/06/20 14:33:45;;;;;;;198.93;154.75;;;;;;;24.80;50.94;96350.28;2118077;27;20558;-61
2022/06/20 14:36:20;;;;;;;177.90;119.93;;;;;;;25.03;50.54;96357.66;2119072;28;20831;-59
2022/06/20 14:37:22;;;;;;;131.75;47.70;;;;;;;25.33;50.11;96366.84;2105338;27;20589;-60
2022/06/20 14:38:31;;;;;;;122.55;11.45;;;;;;;25.45;49.31;96363.84;2108416;28;20195;-60
2022/06/20 14:39:51;;;;;;;116.07;8.30;;;;;;;25.64;48.63;96360.00;2101002;28;20195;-61
2022/06/20 14:41:00;;;;;;;111.65;9.77;;;;;;;26.10;48.17;96367.41;2099008;28;20329;-61
2022/06/20 14:42:10;;;;;;;121.68;26.75;;;;;;;26.41;47.46;96359.41;2091177;28;20199;-60
2022/06/20 14:43:24;;;;;;;130.52;48.75;;;;;;;26.61;46.92;96367.00;2106404;28;20331;-61
2022/06/20 14:44:32;;;;;;;142.77;66.20;;;;;;;25.56;49.05;96367.00;2101933;28;20192;-59
2022/06/20 14:45:47;;;;;;;141.45;58.03;;;;;;;25.06;50.65;96360.81;2098567;28;20231;-60
2022/06/20 14:47:27;;;;;;;176.15;108.35;;;;;;;25.50;49.81;96364.19;2098047;28;20674;-61